sensor_id;sensor_type;location;lat;lon;timestamp;temperature;humidity
32753;DHT22;19121;52.428;10.816;2022-08-01T00:00:21;25.90;48.50
32753;DHT22;19121;52.428;10.816;2022-08-01T00:02:46;25.90;48.50
32753;DHT22;19121;52.428;10.816;2022-08-01T00:05:12;25.90;48.50
32753;DHT22;19121;52.428;10.816;2022-08-01T00:07:38;25.90;48.60
32753;DHT22;19121;52.428;10.816;2022-08-01T00:10:07;25.90;48.60
32753;DHT22;19121;52.428;10.816;2022-08-01T00:12:33;25.90;48.60
32753;DHT22;19121;52.428;10.816;2022-08-01T00:14:59;25.90;48.60
32753;DHT22;19121;52.428;10.816;2022-08-01T00:17:25;25.90;48.60
32753;DHT22;19121;52.428;10.816;2022-08-01T00:19:50;25.90;48.60
32753;DHT22;19121;52.428;10.816;2022-08-01T00:22:16;25.80;48.50
32753;DHT22;19121;52.428;10.816;2022-08-01T00:24:41;25.90;48.60
32753;DHT22;19121;52.428;10.816;2022-08-01T00:27:07;25.80;48.60
32753;DHT22;19121;52.428;10.816;2022-08-01T00:29:32;25.80;48.50
32753;DHT22;19121;52.428;10.816;2022-08-01T00:31:58;25.80;48.50
32753;DHT22;19121;52.428;10.816;2022-08-01T00:34:23;25.80;48.70
32753;DHT22;19121;52.428;10.816;2022-08-01T00:36:49;25.80;48.70
32753;DHT22;19121;52.428;10.816;2022-08-01T00:39:14;25.80;48.70
32753;DHT22;19121;52.428;10.816;2022-08-01T00:41:40;25.80;48.60
32753;DHT22;19121;52.428;10.816;2022-08-01T00:44:05;25.80;48.70
32753;DHT22;19121;52.428;10.816;2022-08-01T00:46:32;25.80;48.60
32753;DHT22;19121;52.428;10.816;2022-08-01T00:48:58;25.80;48.80
32753;DHT22;19121;52.428;10.816;2022-08-01T00:51:25;25.80;48.70
32753;DHT22;19121;52.428;10.816;2022-08-01T00:53:51;25.80;48.80
32753;DHT22;19121;52.428;10.816;2022-08-01T00:56:19;25.80;48.60
32753;DHT22;19121;52.428;10.816;2022-08-01T00:58:44;25.80;49.50
32753;DHT22;19121;52.428;10.816;2022-08-01T01:01:10;25.80;48.70
32753;DHT22;19121;52.428;10.816;2022-08-01T01:03:35;25.80;48.90
32753;DHT22;19121;52.428;10.816;2022-08-01T01:11:57;25.80;48.70
32753;DHT22;19121;52.428;10.816;2022-08-01T01:17:02;25.80;48.90
32753;DHT22;19121;52.428;10.816;2022-08-01T01:19:30;25.80;48.80
32753;DHT22;19121;52.428;10.816;2022-08-01T01:22:00;25.80;48.80
32753;DHT22;19121;52.428;10.816;2022-08-01T01:24:45;25.80;48.70
32753;DHT22;19121;52.428;10.816;2022-08-01T01:27:24;25.80;48.80
32753;DHT22;19121;52.428;10.816;2022-08-01T01:29:54;25.70;48.80
32753;DHT22;19121;52.428;10.816;2022-08-01T01:32:33;25.70;48.80
32753;DHT22;19121;52.428;10.816;2022-08-01T01:35:03;25.80;49.00
32753;DHT22;19121;52.428;10.816;2022-08-01T01:37:32;25.70;48.80
32753;DHT22;19121;52.428;10.816;2022-08-01T01:39:59;25.70;49.10
32753;DHT22;19121;52.428;10.816;2022-08-01T01:42:25;25.80;49.20
32753;DHT22;19121;52.428;10.816;2022-08-01T01:44:52;25.70;49.10
32753;DHT22;19121;52.428;10.816;2022-08-01T01:47:20;25.70;49.10
32753;DHT22;19121;52.428;10.816;2022-08-01T01:49:47;25.70;49.00
32753;DHT22;19121;52.428;10.816;2022-08-01T01:52:16;25.70;49.40
32753;DHT22;19121;52.428;10.816;2022-08-01T01:54:46;25.70;49.10
32753;DHT22;19121;52.428;10.816;2022-08-01T01:57:12;25.70;49.40
32753;DHT22;19121;52.428;10.816;2022-08-01T01:59:40;25.70;49.30
32753;DHT22;19121;52.428;10.816;2022-08-01T02:02:07;25.70;49.20
32753;DHT22;19121;52.428;10.816;2022-08-01T02:04:36;25.70;49.60
32753;DHT22;19121;52.428;10.816;2022-08-01T02:07:03;25.70;49.30
32753;DHT22;19121;52.428;10.816;2022-08-01T02:09:30;25.70;49.80
32753;DHT22;19121;52.428;10.816;2022-08-01T02:11:57;25.70;49.20
32753;DHT22;19121;52.428;10.816;2022-08-01T02:14:24;25.70;49.40
32753;DHT22;19121;52.428;10.816;2022-08-01T02:16:52;25.70;49.50
32753;DHT22;19121;52.428;10.816;2022-08-01T02:19:20;25.70;49.90
32753;DHT22;19121;52.428;10.816;2022-08-01T02:21:56;25.60;49.50
32753;DHT22;19121;52.428;10.816;2022-08-01T02:24:35;25.60;50.00
32753;DHT22;19121;52.428;10.816;2022-08-01T02:27:06;25.60;50.10
32753;DHT22;19121;52.428;10.816;2022-08-01T02:29:50;25.60;50.00
32753;DHT22;19121;52.428;10.816;2022-08-01T02:35:11;25.60;50.10
32753;DHT22;19121;52.428;10.816;2022-08-01T02:37:39;25.60;50.00
32753;DHT22;19121;52.428;10.816;2022-08-01T02:40:06;25.60;50.00
32753;DHT22;19121;52.428;10.816;2022-08-01T02:42:34;25.60;50.10
32753;DHT22;19121;52.428;10.816;2022-08-01T02:45:02;25.60;50.90
32753;DHT22;19121;52.428;10.816;2022-08-01T02:47:30;25.60;50.10
32753;DHT22;19121;52.428;10.816;2022-08-01T02:49:58;25.60;49.90
32753;DHT22;19121;52.428;10.816;2022-08-01T02:52:25;25.60;50.00
32753;DHT22;19121;52.428;10.816;2022-08-01T02:54:53;25.60;50.00
32753;DHT22;19121;52.428;10.816;2022-08-01T02:57:21;25.60;50.00
32753;DHT22;19121;52.428;10.816;2022-08-01T02:59:48;25.60;50.00
32753;DHT22;19121;52.428;10.816;2022-08-01T03:02:14;25.60;50.20
32753;DHT22;19121;52.428;10.816;2022-08-01T03:04:41;25.60;50.10
32753;DHT22;19121;52.428;10.816;2022-08-01T03:07:09;25.60;50.10
32753;DHT22;19121;52.428;10.816;2022-08-01T03:09:39;25.60;50.10
32753;DHT22;19121;52.428;10.816;2022-08-01T03:12:10;25.60;50.00
32753;DHT22;19121;52.428;10.816;2022-08-01T03:14:38;25.50;50.10
32753;DHT22;19121;52.428;10.816;2022-08-01T03:17:05;25.50;50.10
32753;DHT22;19121;52.428;10.816;2022-08-01T03:19:31;25.50;50.30
32753;DHT22;19121;52.428;10.816;2022-08-01T03:21:59;25.50;50.20
32753;DHT22;19121;52.428;10.816;2022-08-01T03:24:30;25.50;50.10
32753;DHT22;19121;52.428;10.816;2022-08-01T03:26:56;25.50;50.30
32753;DHT22;19121;52.428;10.816;2022-08-01T03:29:25;25.50;50.30
32753;DHT22;19121;52.428;10.816;2022-08-01T03:31:51;25.50;50.50
32753;DHT22;19121;52.428;10.816;2022-08-01T03:34:17;25.50;50.30
32753;DHT22;19121;52.428;10.816;2022-08-01T03:39:31;25.50;50.40
32753;DHT22;19121;52.428;10.816;2022-08-01T03:42:04;25.50;50.30
32753;DHT22;19121;52.428;10.816;2022-08-01T03:44:32;25.50;50.30
32753;DHT22;19121;52.428;10.816;2022-08-01T03:47:04;25.50;50.30
32753;DHT22;19121;52.428;10.816;2022-08-01T03:49:32;25.50;50.50
32753;DHT22;19121;52.428;10.816;2022-08-01T03:52:01;25.50;50.20
32753;DHT22;19121;52.428;10.816;2022-08-01T03:54:31;25.50;50.00
32753;DHT22;19121;52.428;10.816;2022-08-01T03:56:58;25.50;50.00
32753;DHT22;19121;52.428;10.816;2022-08-01T03:59:25;25.50;49.90
32753;DHT22;19121;52.428;10.816;2022-08-01T04:01:51;25.50;49.90
32753;DHT22;19121;52.428;10.816;2022-08-01T04:04:17;25.50;49.80
32753;DHT22;19121;52.428;10.816;2022-08-01T04:06:43;25.40;49.70
32753;DHT22;19121;52.428;10.816;2022-08-01T04:09:10;25.40;49.80
32753;DHT22;19121;52.428;10.816;2022-08-01T04:11:37;25.40;49.70
32753;DHT22;19121;52.428;10.816;2022-08-01T04:14:03;25.40;49.80
32753;DHT22;19121;52.428;10.816;2022-08-01T04:16:29;25.40;49.50
32753;DHT22;19121;52.428;10.816;2022-08-01T04:18:54;25.40;49.50
32753;DHT22;19121;52.428;10.816;2022-08-01T04:21:23;25.40;49.30
32753;DHT22;19121;52.428;10.816;2022-08-01T04:23:51;25.40;49.30
32753;DHT22;19121;52.428;10.816;2022-08-01T04:26:18;25.40;49.40
32753;DHT22;19121;52.428;10.816;2022-08-01T04:28:46;25.40;49.50
32753;DHT22;19121;52.428;10.816;2022-08-01T04:31:16;25.40;49.50
32753;DHT22;19121;52.428;10.816;2022-08-01T04:33:47;25.40;49.50
32753;DHT22;19121;52.428;10.816;2022-08-01T04:36:14;25.40;49.50
32753;DHT22;19121;52.428;10.816;2022-08-01T04:38:41;25.40;49.70
32753;DHT22;19121;52.428;10.816;2022-08-01T04:41:10;25.40;49.80
32753;DHT22;19121;52.428;10.816;2022-08-01T04:43:37;25.40;49.90
32753;DHT22;19121;52.428;10.816;2022-08-01T04:46:03;25.40;49.90
32753;DHT22;19121;52.428;10.816;2022-08-01T04:48:31;25.40;50.00
32753;DHT22;19121;52.428;10.816;2022-08-01T04:50:58;25.40;49.80
32753;DHT22;19121;52.428;10.816;2022-08-01T04:53:24;25.40;49.90
32753;DHT22;19121;52.428;10.816;2022-08-01T04:55:51;25.40;50.40
32753;DHT22;19121;52.428;10.816;2022-08-01T04:58:17;25.40;49.80
32753;DHT22;19121;52.428;10.816;2022-08-01T05:00:42;25.40;49.80
32753;DHT22;19121;52.428;10.816;2022-08-01T05:03:08;25.40;50.00
32753;DHT22;19121;52.428;10.816;2022-08-01T05:05:34;25.40;49.90
32753;DHT22;19121;52.428;10.816;2022-08-01T05:08:00;25.40;49.60
32753;DHT22;19121;52.428;10.816;2022-08-01T05:10:25;25.40;49.50
32753;DHT22;19121;52.428;10.816;2022-08-01T05:12:51;25.40;49.70
32753;DHT22;19121;52.428;10.816;2022-08-01T05:15:17;25.40;49.50
32753;DHT22;19121;52.428;10.816;2022-08-01T05:17:42;25.40;49.50
32753;DHT22;19121;52.428;10.816;2022-08-01T05:20:08;25.40;49.80
32753;DHT22;19121;52.428;10.816;2022-08-01T05:22:34;25.40;49.60
32753;DHT22;19121;52.428;10.816;2022-08-01T05:24:59;25.40;49.80
32753;DHT22;19121;52.428;10.816;2022-08-01T05:27:26;25.40;49.80
32753;DHT22;19121;52.428;10.816;2022-08-01T05:29:51;25.40;49.80
32753;DHT22;19121;52.428;10.816;2022-08-01T05:32:17;25.40;49.70
32753;DHT22;19121;52.428;10.816;2022-08-01T05:34:42;25.40;49.70
32753;DHT22;19121;52.428;10.816;2022-08-01T05:37:08;25.40;49.90
32753;DHT22;19121;52.428;10.816;2022-08-01T05:39:34;25.40;50.10
32753;DHT22;19121;52.428;10.816;2022-08-01T05:41:59;25.40;50.70
32753;DHT22;19121;52.428;10.816;2022-08-01T05:44:25;25.40;51.00
32753;DHT22;19121;52.428;10.816;2022-08-01T05:46:51;25.30;51.20
32753;DHT22;19121;52.428;10.816;2022-08-01T05:49:16;25.30;51.30
32753;DHT22;19121;52.428;10.816;2022-08-01T05:51:42;25.30;51.40
32753;DHT22;19121;52.428;10.816;2022-08-01T05:54:07;25.30;50.80
32753;DHT22;19121;52.428;10.816;2022-08-01T05:56:33;25.30;50.80
32753;DHT22;19121;52.428;10.816;2022-08-01T05:58:58;25.30;50.60
32753;DHT22;19121;52.428;10.816;2022-08-01T06:01:24;25.30;50.40
32753;DHT22;19121;52.428;10.816;2022-08-01T06:03:50;25.30;50.20
32753;DHT22;19121;52.428;10.816;2022-08-01T06:06:15;25.30;50.70
32753;DHT22;19121;52.428;10.816;2022-08-01T06:08:41;25.30;50.90
32753;DHT22;19121;52.428;10.816;2022-08-01T06:11:07;25.30;50.70
32753;DHT22;19121;52.428;10.816;2022-08-01T06:13:32;25.30;51.20
32753;DHT22;19121;52.428;10.816;2022-08-01T06:15:58;25.30;51.10
32753;DHT22;19121;52.428;10.816;2022-08-01T06:18:24;25.30;51.40
32753;DHT22;19121;52.428;10.816;2022-08-01T06:20:49;25.30;51.80
32753;DHT22;19121;52.428;10.816;2022-08-01T06:23:15;25.30;52.00
32753;DHT22;19121;52.428;10.816;2022-08-01T06:25:44;25.30;53.10
32753;DHT22;19121;52.428;10.816;2022-08-01T06:28:09;25.30;53.30
32753;DHT22;19121;52.428;10.816;2022-08-01T06:30:35;25.30;52.40
32753;DHT22;19121;52.428;10.816;2022-08-01T06:33:00;25.30;52.50
32753;DHT22;19121;52.428;10.816;2022-08-01T06:35:26;25.20;52.70
32753;DHT22;19121;52.428;10.816;2022-08-01T06:37:52;25.30;53.00
32753;DHT22;19121;52.428;10.816;2022-08-01T06:40:17;25.30;52.50
32753;DHT22;19121;52.428;10.816;2022-08-01T06:42:44;25.30;52.30
32753;DHT22;19121;52.428;10.816;2022-08-01T06:45:11;25.30;52.30
32753;DHT22;19121;52.428;10.816;2022-08-01T06:47:38;25.30;52.90
32753;DHT22;19121;52.428;10.816;2022-08-01T06:50:05;25.30;55.60
32753;DHT22;19121;52.428;10.816;2022-08-01T06:52:31;25.30;57.10
32753;DHT22;19121;52.428;10.816;2022-08-01T06:54:56;25.20;57.60
32753;DHT22;19121;52.428;10.816;2022-08-01T06:57:22;25.20;58.60
32753;DHT22;19121;52.428;10.816;2022-08-01T06:59:47;25.10;59.00
32753;DHT22;19121;52.428;10.816;2022-08-01T07:02:13;25.10;59.10
32753;DHT22;19121;52.428;10.816;2022-08-01T07:04:38;25.00;58.70
32753;DHT22;19121;52.428;10.816;2022-08-01T07:07:04;25.00;58.00
32753;DHT22;19121;52.428;10.816;2022-08-01T07:09:30;25.00;57.60
32753;DHT22;19121;52.428;10.816;2022-08-01T07:11:55;25.10;57.30
32753;DHT22;19121;52.428;10.816;2022-08-01T07:14:22;25.10;57.00
32753;DHT22;19121;52.428;10.816;2022-08-01T07:16:48;25.10;56.50
32753;DHT22;19121;52.428;10.816;2022-08-01T07:19:14;25.10;56.40
32753;DHT22;19121;52.428;10.816;2022-08-01T07:21:40;25.10;56.20
32753;DHT22;19121;52.428;10.816;2022-08-01T07:24:10;25.10;55.70
32753;DHT22;19121;52.428;10.816;2022-08-01T07:26:36;25.20;55.80
32753;DHT22;19121;52.428;10.816;2022-08-01T07:29:01;25.20;55.50
32753;DHT22;19121;52.428;10.816;2022-08-01T07:31:28;25.20;55.30
32753;DHT22;19121;52.428;10.816;2022-08-01T07:33:53;25.20;55.50
32753;DHT22;19121;52.428;10.816;2022-08-01T07:36:19;25.20;55.30
32753;DHT22;19121;52.428;10.816;2022-08-01T07:38:45;25.20;55.50
32753;DHT22;19121;52.428;10.816;2022-08-01T07:41:11;25.20;55.50
32753;DHT22;19121;52.428;10.816;2022-08-01T07:43:37;25.30;55.40
32753;DHT22;19121;52.428;10.816;2022-08-01T07:46:03;25.30;55.00
32753;DHT22;19121;52.428;10.816;2022-08-01T07:48:28;25.30;55.10
32753;DHT22;19121;52.428;10.816;2022-08-01T07:50:54;25.30;55.00
32753;DHT22;19121;52.428;10.816;2022-08-01T07:53:20;25.30;54.80
32753;DHT22;19121;52.428;10.816;2022-08-01T07:55:46;25.40;55.50
32753;DHT22;19121;52.428;10.816;2022-08-01T07:58:11;25.40;54.80
32753;DHT22;19121;52.428;10.816;2022-08-01T08:00:37;25.40;55.00
32753;DHT22;19121;52.428;10.816;2022-08-01T08:03:03;25.40;55.20
32753;DHT22;19121;52.428;10.816;2022-08-01T08:05:28;25.40;55.20
32753;DHT22;19121;52.428;10.816;2022-08-01T08:07:54;25.40;55.10
32753;DHT22;19121;52.428;10.816;2022-08-01T08:10:20;25.40;55.20
32753;DHT22;19121;52.428;10.816;2022-08-01T08:12:45;25.50;55.10
32753;DHT22;19121;52.428;10.816;2022-08-01T08:15:12;25.50;54.90
32753;DHT22;19121;52.428;10.816;2022-08-01T08:17:38;25.50;54.70
32753;DHT22;19121;52.428;10.816;2022-08-01T08:20:06;25.50;54.70
32753;DHT22;19121;52.428;10.816;2022-08-01T08:22:31;25.50;54.60
32753;DHT22;19121;52.428;10.816;2022-08-01T08:24:57;25.50;54.40
32753;DHT22;19121;52.428;10.816;2022-08-01T08:27:22;25.50;54.20
32753;DHT22;19121;52.428;10.816;2022-08-01T08:29:48;25.60;54.50
32753;DHT22;19121;52.428;10.816;2022-08-01T08:32:13;25.60;54.40
32753;DHT22;19121;52.428;10.816;2022-08-01T08:34:39;25.60;54.40
32753;DHT22;19121;52.428;10.816;2022-08-01T08:37:04;25.60;54.20
32753;DHT22;19121;52.428;10.816;2022-08-01T08:39:30;25.60;54.30
32753;DHT22;19121;52.428;10.816;2022-08-01T08:41:59;25.60;54.40
32753;DHT22;19121;52.428;10.816;2022-08-01T08:44:25;25.60;54.20
32753;DHT22;19121;52.428;10.816;2022-08-01T08:46:52;25.50;53.90
32753;DHT22;19121;52.428;10.816;2022-08-01T08:49:20;25.50;54.10
32753;DHT22;19121;52.428;10.816;2022-08-01T08:51:48;25.50;54.30
32753;DHT22;19121;52.428;10.816;2022-08-01T08:54:14;25.50;54.70
32753;DHT22;19121;52.428;10.816;2022-08-01T08:56:41;25.50;54.30
32753;DHT22;19121;52.428;10.816;2022-08-01T08:59:07;25.50;54.30
32753;DHT22;19121;52.428;10.816;2022-08-01T09:01:33;25.40;54.20
32753;DHT22;19121;52.428;10.816;2022-08-01T09:04:01;25.40;54.30
32753;DHT22;19121;52.428;10.816;2022-08-01T09:06:26;25.40;54.60
32753;DHT22;19121;52.428;10.816;2022-08-01T09:08:53;25.40;54.80
32753;DHT22;19121;52.428;10.816;2022-08-01T09:11:19;25.40;54.70
32753;DHT22;19121;52.428;10.816;2022-08-01T09:14:13;25.40;54.60
32753;DHT22;19121;52.428;10.816;2022-08-01T09:16:41;25.40;54.80
32753;DHT22;19121;52.428;10.816;2022-08-01T09:19:19;25.40;54.70
32753;DHT22;19121;52.428;10.816;2022-08-01T09:21:58;25.40;54.70
32753;DHT22;19121;52.428;10.816;2022-08-01T09:24:25;25.40;54.90
32753;DHT22;19121;52.428;10.816;2022-08-01T09:26:51;25.40;55.40
32753;DHT22;19121;52.428;10.816;2022-08-01T09:29:20;25.40;55.20
32753;DHT22;19121;52.428;10.816;2022-08-01T09:31:46;25.40;55.40
32753;DHT22;19121;52.428;10.816;2022-08-01T09:34:12;25.40;55.40
32753;DHT22;19121;52.428;10.816;2022-08-01T09:39:14;25.30;55.10
32753;DHT22;19121;52.428;10.816;2022-08-01T09:41:41;25.30;55.30
32753;DHT22;19121;52.428;10.816;2022-08-01T09:44:06;25.30;55.40
32753;DHT22;19121;52.428;10.816;2022-08-01T09:46:32;25.30;55.50
32753;DHT22;19121;52.428;10.816;2022-08-01T09:49:02;25.30;55.30
32753;DHT22;19121;52.428;10.816;2022-08-01T09:51:36;25.30;55.20
32753;DHT22;19121;52.428;10.816;2022-08-01T09:54:03;25.30;55.40
32753;DHT22;19121;52.428;10.816;2022-08-01T09:56:37;25.30;55.70
32753;DHT22;19121;52.428;10.816;2022-08-01T09:59:03;25.30;55.60
32753;DHT22;19121;52.428;10.816;2022-08-01T10:01:41;25.30;55.50
32753;DHT22;19121;52.428;10.816;2022-08-01T10:04:16;25.30;55.30
32753;DHT22;19121;52.428;10.816;2022-08-01T10:06:47;25.20;55.00
32753;DHT22;19121;52.428;10.816;2022-08-01T10:09:28;25.30;55.30
32753;DHT22;19121;52.428;10.816;2022-08-01T10:11:54;25.30;54.80
32753;DHT22;19121;52.428;10.816;2022-08-01T10:14:22;25.30;54.70
32753;DHT22;19121;52.428;10.816;2022-08-01T10:16:49;25.30;54.70
32753;DHT22;19121;52.428;10.816;2022-08-01T10:19:16;25.30;54.70
32753;DHT22;19121;52.428;10.816;2022-08-01T10:21:42;25.30;54.50
32753;DHT22;19121;52.428;10.816;2022-08-01T10:24:11;25.30;54.70
32753;DHT22;19121;52.428;10.816;2022-08-01T10:26:38;25.30;54.50
32753;DHT22;19121;52.428;10.816;2022-08-01T10:29:05;25.40;54.70
32753;DHT22;19121;52.428;10.816;2022-08-01T10:31:31;25.30;54.40
32753;DHT22;19121;52.428;10.816;2022-08-01T10:33:59;25.30;54.50
32753;DHT22;19121;52.428;10.816;2022-08-01T10:36:26;25.30;54.50
32753;DHT22;19121;52.428;10.816;2022-08-01T10:38:54;25.30;54.60
32753;DHT22;19121;52.428;10.816;2022-08-01T10:41:21;25.30;54.60
32753;DHT22;19121;52.428;10.816;2022-08-01T10:43:47;25.30;54.60
32753;DHT22;19121;52.428;10.816;2022-08-01T10:46:12;25.30;54.40
32753;DHT22;19121;52.428;10.816;2022-08-01T10:49:06;25.30;54.30
32753;DHT22;19121;52.428;10.816;2022-08-01T10:51:35;25.30;54.20
32753;DHT22;19121;52.428;10.816;2022-08-01T10:54:05;25.30;54.30
32753;DHT22;19121;52.428;10.816;2022-08-01T10:56:47;25.30;54.10
32753;DHT22;19121;52.428;10.816;2022-08-01T10:59:24;25.20;54.10
32753;DHT22;19121;52.428;10.816;2022-08-01T11:02:01;25.30;54.10
32753;DHT22;19121;52.428;10.816;2022-08-01T11:04:41;25.30;54.10
32753;DHT22;19121;52.428;10.816;2022-08-01T11:07:16;25.30;54.20
32753;DHT22;19121;52.428;10.816;2022-08-01T11:09:45;25.30;54.10
32753;DHT22;19121;52.428;10.816;2022-08-01T11:12:12;25.20;54.00
32753;DHT22;19121;52.428;10.816;2022-08-01T11:20:04;25.20;53.70
32753;DHT22;19121;52.428;10.816;2022-08-01T11:22:30;25.20;53.70
32753;DHT22;19121;52.428;10.816;2022-08-01T11:24:56;25.20;53.70
32753;DHT22;19121;52.428;10.816;2022-08-01T11:27:28;25.20;53.80
32753;DHT22;19121;52.428;10.816;2022-08-01T11:32:49;25.20;53.90
32753;DHT22;19121;52.428;10.816;2022-08-01T11:35:15;25.20;53.90
32753;DHT22;19121;52.428;10.816;2022-08-01T11:37:41;25.20;53.80
32753;DHT22;19121;52.428;10.816;2022-08-01T11:40:27;25.20;53.80
32753;DHT22;19121;52.428;10.816;2022-08-01T11:43:17;25.20;54.00
32753;DHT22;19121;52.428;10.816;2022-08-01T11:45:50;25.20;53.80
32753;DHT22;19121;52.428;10.816;2022-08-01T11:48:21;25.10;53.70
32753;DHT22;19121;52.428;10.816;2022-08-01T11:50:48;25.20;53.80
32753;DHT22;19121;52.428;10.816;2022-08-01T11:53:14;25.20;53.70
32753;DHT22;19121;52.428;10.816;2022-08-01T11:55:47;25.30;53.80
32753;DHT22;19121;52.428;10.816;2022-08-01T11:58:14;25.30;53.70
32753;DHT22;19121;52.428;10.816;2022-08-01T12:00:40;25.40;53.60
32753;DHT22;19121;52.428;10.816;2022-08-01T12:03:07;25.40;53.60
32753;DHT22;19121;52.428;10.816;2022-08-01T12:05:34;25.40;53.60
32753;DHT22;19121;52.428;10.816;2022-08-01T12:08:03;25.50;53.40
32753;DHT22;19121;52.428;10.816;2022-08-01T12:10:32;25.50;53.80
32753;DHT22;19121;52.428;10.816;2022-08-01T12:13:04;25.50;53.40
32753;DHT22;19121;52.428;10.816;2022-08-01T12:15:34;25.60;53.40
32753;DHT22;19121;52.428;10.816;2022-08-01T12:18:01;25.60;53.40
32753;DHT22;19121;52.428;10.816;2022-08-01T12:20:29;25.60;53.20
32753;DHT22;19121;52.428;10.816;2022-08-01T12:22:56;25.60;53.10
32753;DHT22;19121;52.428;10.816;2022-08-01T12:25:22;25.60;53.00
32753;DHT22;19121;52.428;10.816;2022-08-01T12:27:48;25.70;52.90
32753;DHT22;19121;52.428;10.816;2022-08-01T12:30:16;25.70;52.80
32753;DHT22;19121;52.428;10.816;2022-08-01T12:32:46;25.70;52.80
32753;DHT22;19121;52.428;10.816;2022-08-01T12:35:17;25.70;52.80
32753;DHT22;19121;52.428;10.816;2022-08-01T12:37:47;25.70;52.80
32753;DHT22;19121;52.428;10.816;2022-08-01T12:40:30;25.70;52.80
32753;DHT22;19121;52.428;10.816;2022-08-01T12:42:59;25.80;52.80
32753;DHT22;19121;52.428;10.816;2022-08-01T12:45:33;25.80;52.70
32753;DHT22;19121;52.428;10.816;2022-08-01T12:47:59;25.80;52.70
32753;DHT22;19121;52.428;10.816;2022-08-01T12:50:28;25.80;52.60
32753;DHT22;19121;52.428;10.816;2022-08-01T12:52:55;25.80;53.20
32753;DHT22;19121;52.428;10.816;2022-08-01T12:55:22;25.80;52.60
32753;DHT22;19121;52.428;10.816;2022-08-01T12:58:02;25.80;52.50
32753;DHT22;19121;52.428;10.816;2022-08-01T13:00:28;25.80;52.50
32753;DHT22;19121;52.428;10.816;2022-08-01T13:08:20;25.90;52.60
32753;DHT22;19121;52.428;10.816;2022-08-01T13:10:46;25.90;52.60
32753;DHT22;19121;52.428;10.816;2022-08-01T13:13:14;25.90;52.60
32753;DHT22;19121;52.428;10.816;2022-08-01T13:15:41;25.90;52.50
32753;DHT22;19121;52.428;10.816;2022-08-01T13:18:30;25.90;52.50
32753;DHT22;19121;52.428;10.816;2022-08-01T13:21:27;25.90;52.50
32753;DHT22;19121;52.428;10.816;2022-08-01T13:24:09;25.90;52.40
32753;DHT22;19121;52.428;10.816;2022-08-01T13:26:44;25.90;52.40
32753;DHT22;19121;52.428;10.816;2022-08-01T13:29:14;25.90;52.40
32753;DHT22;19121;52.428;10.816;2022-08-01T13:31:41;25.90;52.40
32753;DHT22;19121;52.428;10.816;2022-08-01T13:34:07;25.90;52.30
32753;DHT22;19121;52.428;10.816;2022-08-01T13:36:33;25.90;52.40
32753;DHT22;19121;52.428;10.816;2022-08-01T13:38:59;25.90;52.30
32753;DHT22;19121;52.428;10.816;2022-08-01T13:41:44;25.90;52.20
32753;DHT22;19121;52.428;10.816;2022-08-01T13:44:10;25.90;52.20
32753;DHT22;19121;52.428;10.816;2022-08-01T13:46:37;26.00;52.20
32753;DHT22;19121;52.428;10.816;2022-08-01T13:49:04;26.00;52.10
32753;DHT22;19121;52.428;10.816;2022-08-01T13:51:30;26.00;52.10
32753;DHT22;19121;52.428;10.816;2022-08-01T13:53:55;26.00;51.80
32753;DHT22;19121;52.428;10.816;2022-08-01T13:56:21;26.00;51.90
32753;DHT22;19121;52.428;10.816;2022-08-01T13:58:47;26.00;52.00
32753;DHT22;19121;52.428;10.816;2022-08-01T14:01:12;26.00;51.80
32753;DHT22;19121;52.428;10.816;2022-08-01T14:03:38;26.00;51.60
32753;DHT22;19121;52.428;10.816;2022-08-01T14:06:04;26.00;51.50
32753;DHT22;19121;52.428;10.816;2022-08-01T14:08:29;26.00;51.50
32753;DHT22;19121;52.428;10.816;2022-08-01T14:10:55;26.00;51.60
32753;DHT22;19121;52.428;10.816;2022-08-01T14:13:24;26.00;51.50
32753;DHT22;19121;52.428;10.816;2022-08-01T14:15:50;26.10;51.60
32753;DHT22;19121;52.428;10.816;2022-08-01T14:18:15;26.10;51.50
32753;DHT22;19121;52.428;10.816;2022-08-01T14:20:41;26.10;51.50
32753;DHT22;19121;52.428;10.816;2022-08-01T14:23:08;26.10;51.50
32753;DHT22;19121;52.428;10.816;2022-08-01T14:25:34;26.00;51.40
32753;DHT22;19121;52.428;10.816;2022-08-01T14:27:59;26.10;51.50
32753;DHT22;19121;52.428;10.816;2022-08-01T14:30:24;26.10;51.50
32753;DHT22;19121;52.428;10.816;2022-08-01T14:32:50;26.10;51.40
32753;DHT22;19121;52.428;10.816;2022-08-01T14:35:16;26.00;51.30
32753;DHT22;19121;52.428;10.816;2022-08-01T14:37:41;26.10;51.20
32753;DHT22;19121;52.428;10.816;2022-08-01T14:40:07;26.10;51.20
32753;DHT22;19121;52.428;10.816;2022-08-01T14:42:35;26.10;51.00
32753;DHT22;19121;52.428;10.816;2022-08-01T14:45:01;26.00;51.00
32753;DHT22;19121;52.428;10.816;2022-08-01T14:47:26;26.10;51.10
32753;DHT22;19121;52.428;10.816;2022-08-01T14:49:52;26.10;51.20
32753;DHT22;19121;52.428;10.816;2022-08-01T14:52:17;26.10;51.20
32753;DHT22;19121;52.428;10.816;2022-08-01T14:54:43;26.00;51.10
32753;DHT22;19121;52.428;10.816;2022-08-01T14:57:08;26.00;51.10
32753;DHT22;19121;52.428;10.816;2022-08-01T14:59:34;26.10;51.10
32753;DHT22;19121;52.428;10.816;2022-08-01T15:02:00;26.10;51.00
32753;DHT22;19121;52.428;10.816;2022-08-01T15:04:25;26.10;51.00
32753;DHT22;19121;52.428;10.816;2022-08-01T15:06:51;26.10;51.00
32753;DHT22;19121;52.428;10.816;2022-08-01T15:09:16;26.10;51.00
32753;DHT22;19121;52.428;10.816;2022-08-01T15:11:42;26.10;51.00
32753;DHT22;19121;52.428;10.816;2022-08-01T15:14:07;26.10;51.00
32753;DHT22;19121;52.428;10.816;2022-08-01T15:16:51;26.10;51.00
32753;DHT22;19121;52.428;10.816;2022-08-01T15:19:17;26.10;50.90
32753;DHT22;19121;52.428;10.816;2022-08-01T15:21:42;26.10;50.90
32753;DHT22;19121;52.428;10.816;2022-08-01T15:24:08;26.20;50.90
32753;DHT22;19121;52.428;10.816;2022-08-01T15:26:34;26.20;51.00
32753;DHT22;19121;52.428;10.816;2022-08-01T15:29:00;26.20;51.00
32753;DHT22;19121;52.428;10.816;2022-08-01T15:31:26;26.20;51.00
32753;DHT22;19121;52.428;10.816;2022-08-01T15:33:51;26.20;51.00
32753;DHT22;19121;52.428;10.816;2022-08-01T15:36:17;26.20;51.40
32753;DHT22;19121;52.428;10.816;2022-08-01T15:38:42;26.20;50.90
32753;DHT22;19121;52.428;10.816;2022-08-01T15:41:08;26.20;51.00
32753;DHT22;19121;52.428;10.816;2022-08-01T15:43:33;26.20;50.90
32753;DHT22;19121;52.428;10.816;2022-08-01T15:45:59;26.20;50.90
32753;DHT22;19121;52.428;10.816;2022-08-01T15:48:25;26.20;50.90